Main page
METAR-TAF:

METAR-TAF

Airports :

Nouakchott–Oumtounsy International Airport

Nouakchott, Mauritania

latitude: 18-18-36N, longitude: 015-58-11W, elevation: 3 m

Current weather observation

The report was made 39 minutes ago, at 21:00 UTC
Wind 10 kt from the North
Temperature 28°C
Humidity 48%
Pressure 1013 hPa
Visibility 10 km or more
no clouds below 1500 m and no cumulonimbus

METAR: GQNO 282100Z 01010KT CAVOK 28/16 Q1013 NOSIG

Time: 21:39 (21:39 UTC)

Forecast

The report was made 4 hours and 39 minutes ago, at 17:00 UTC
Forecast valid from 28 at 18 UTC to 29 at 24 UTC
Wind 14 kt from the North/Northeast
Visibility: 7000 m

TAF: GQNO 281700Z 2818/2924 02014KT 7000 NSC

Weather observations and forecasts of more than 4000 airports (METAR and TAF reports).

The available stations are represented by yellow and red dots on the map.

Hover mouse over dot to see the name of the station.

Then click to see weather observations and forecasts.

To change the map : click on the green buttons with a black cross to zoom in, on the green button with a dash to zoom out, or on the green arrows for adjacent maps.


METAR-TAF: